Time;durP1;ratioP1;P1;durP2;ratioP2;P2;SDS_P1;SDS_P2;PMS_P1;PMS_P2;Temp;Humidity;BMP_temperature;BMP_pressure;BME280_temperature;BME280_humidity;BME280_pressure;Samples;Min_cycle;Max_cycle;Signal;HPM_P1;HPM_P2
2023/07/04 00:01:59;;;;;;;;;;;;;;;22.55;72.34;96934.22;626913;226;64646;-61
2023/07/04 00:04:29;;;;;;;;;;;;;;;22.56;72.34;96932.33;626929;226;66656;-60
2023/07/04 00:06:56;;;;;;;;;;;;;;;22.55;72.31;96930.75;626943;225;66443;-61
2023/07/04 00:09:23;;;;;;;;;;;;;;;22.56;72.33;96929.66;626872;226;64661;-60
2023/07/04 00:11:51;;;;;;;;;;;;;;;22.56;72.33;96929.66;626914;226;66766;-60
2023/07/04 00:14:19;;;;;;;;;;;;;;;22.55;72.36;96930.75;624737;226;64978;-60
2023/07/04 00:16:46;;;;;;;;;;;;;;;22.56;72.35;96926.98;624643;227;66907;-60
2023/07/04 00:19:14;;;;;;;;;;;;;;;22.56;72.35;96935.02;624629;227;66645;-61
2023/07/04 00:21:42;;;;;;;;;;;;;;;22.56;72.33;96932.33;624618;227;64888;-60
2023/07/04 00:24:10;;;;;;;;;;;;;;;22.56;72.36;96935.02;624644;227;66864;-60
2023/07/04 00:26:38;;;;;;;;;;;;;;;22.56;72.29;96932.33;624616;227;66582;-62
2023/07/04 00:29:06;;;;;;;;;;;;;;;22.55;72.30;96928.86;624638;227;64843;-61
2023/07/04 00:31:33;;;;;;;;;;;;;;;22.55;72.37;96931.55;624661;227;65245;-61
2023/07/04 00:34:01;;;;;;;;;;;;;;;22.55;72.29;96926.19;624588;227;67036;-61
2023/07/04 00:36:29;;;;;;;;;;;;;;;22.56;72.32;96916.27;624642;227;64990;-61
2023/07/04 00:38:57;;;;;;;;;;;;;;;22.55;72.32;96920.83;624645;227;67426;-61
2023/07/04 00:41:26;;;;;;;;;;;;;;;22.55;72.32;96926.19;624635;227;66679;-61
2023/07/04 00:44:09;;;;;;;;;;;;;;;22.55;72.29;96920.03;624629;227;65017;-61
2023/07/04 00:46:45;;;;;;;;;;;;;;;22.56;72.32;96921.63;624568;225;66807;-61
2023/07/04 00:49:22;;;;;;;;;;;;;;;22.55;72.34;96920.03;624551;225;66604;-60
2023/07/04 00:51:50;;;;;;;;;;;;;;;22.55;72.31;96920.03;624296;227;63877;-60
2023/07/04 00:54:19;;;;;;;;;;;;;;;22.55;72.30;96914.68;624504;225;64293;-61
2023/07/04 00:56:47;;;;;;;;;;;;;;;22.55;72.34;96922.72;624609;227;66834;-60
2023/07/04 00:59:15;;;;;;;;;;;;;;;22.54;72.36;96924.60;624615;227;64899;-61
2023/07/04 01:01:43;;;;;;;;;;;;;;;22.55;72.37;96933.42;624679;227;64971;-61
2023/07/04 01:04:10;;;;;;;;;;;;;;;22.53;72.36;96928.34;624634;227;64578;-61
2023/07/04 01:06:43;;;;;;;;;;;;;;;22.55;72.36;96930.75;624652;227;62879;-61
2023/07/04 01:09:12;;;;;;;;;;;;;;;22.55;72.36;96928.07;624416;225;66841;-61
2023/07/04 01:11:42;;;;;;;;;;;;;;;22.55;72.37;96933.42;624657;227;66607;-61
2023/07/04 01:14:20;;;;;;;;;;;;;;;22.55;72.34;96936.11;626645;226;63802;-60
2023/07/04 01:16:48;;;;;;;;;;;;;;;22.55;72.36;96936.11;626968;226;64630;-60
2023/07/04 01:19:17;;;;;;;;;;;;;;;22.54;72.38;96932.64;626890;226;66912;-60
2023/07/04 01:21:47;;;;;;;;;;;;;;;22.55;72.37;96928.07;626778;225;64901;-61
2023/07/04 01:24:19;;;;;;;;;;;;;;;22.54;72.39;96932.64;626849;226;66938;-60
2023/07/04 01:26:49;;;;;;;;;;;;;;;22.54;72.36;96924.60;626132;226;66709;-61
2023/07/04 01:29:19;;;;;;;;;;;;;;;22.55;72.31;96925.39;626937;226;62893;-61
2023/07/04 01:31:47;;;;;;;;;;;;;;;22.55;72.35;96925.39;626885;226;64657;-61
2023/07/04 01:34:17;;;;;;;;;;;;;;;22.55;72.37;96930.75;626918;226;64780;-61
2023/07/04 01:36:44;;;;;;;;;;;;;;;22.55;72.35;96936.11;626918;226;63125;-60
2023/07/04 01:39:16;;;;;;;;;;;;;;;22.55;72.36;96941.46;626915;226;64550;-60
2023/07/04 01:41:45;;;;;;;;;;;;;;;22.55;72.35;96936.11;626995;226;66641;-60
2023/07/04 01:44:14;;;;;;;;;;;;;;;22.55;72.37;96941.46;626984;226;63022;-61
2023/07/04 01:46:41;;;;;;;;;;;;;;;22.54;72.37;96943.34;626883;226;66966;-61
2023/07/04 01:49:09;;;;;;;;;;;;;;;22.55;72.36;96938.78;626914;226;67785;-61
2023/07/04 01:51:38;;;;;;;;;;;;;;;22.55;72.33;96936.11;626923;226;64849;-61
2023/07/04 01:54:06;;;;;;;;;;;;;;;22.54;72.33;96935.31;626935;226;66979;-61
2023/07/04 01:56:34;;;;;;;;;;;;;;;22.54;72.31;96940.67;626989;226;66812;-61
2023/07/04 01:59:02;;;;;;;;;;;;;;;22.54;72.34;96948.70;626879;226;64865;-61
2023/07/04 02:01:30;;;;;;;;;;;;;;;22.54;72.32;96939.88;626930;226;66813;-61
2023/07/04 02:03:57;;;;;;;;;;;;;;;22.55;72.33;96941.46;626947;226;66896;-61
2023/07/04 02:06:25;;;;;;;;;;;;;;;22.54;72.34;96942.55;626933;226;62651;-61
2023/07/04 02:08:53;;;;;;;;;;;;;;;22.54;72.33;96946.02;626971;226;66673;-61
2023/07/04 02:11:21;;;;;;;;;;;;;;;22.55;72.34;96952.17;626933;226;66666;-61
2023/07/04 02:13:48;;;;;;;;;;;;;;;22.55;72.30;96946.82;625169;226;64843;-61
2023/07/04 02:16:16;;;;;;;;;;;;;;;22.55;72.30;96946.82;624669;227;64857;-61
2023/07/04 02:18:43;;;;;;;;;;;;;;;22.55;72.34;96946.82;624658;227;64439;-61
2023/07/04 02:21:11;;;;;;;;;;;;;;;22.54;72.30;96950.59;624697;227;65484;-61
2023/07/04 02:23:39;;;;;;;;;;;;;;;22.54;72.33;96951.38;624647;227;64513;-61
2023/07/04 02:26:08;;;;;;;;;;;;;;;22.54;72.34;96947.91;624614;227;66786;-61
2023/07/04 02:28:36;;;;;;;;;;;;;;;22.53;72.30;96944.41;624669;227;65056;-61
2023/07/04 02:31:04;;;;;;;;;;;;;;;22.54;72.28;96946.02;624690;227;67438;-61
2023/07/04 02:33:32;;;;;;;;;;;;;;;22.53;72.29;96949.77;624710;227;64243;-61
2023/07/04 02:36:00;;;;;;;;;;;;;;;22.54;72.32;96945.23;624675;227;63864;-61
2023/07/04 02:38:27;;;;;;;;;;;;;;;22.54;72.29;96951.38;624639;227;66595;-61
2023/07/04 02:40:55;;;;;;;;;;;;;;;22.54;72.29;96954.06;624639;227;63960;-61
2023/07/04 02:43:22;;;;;;;;;;;;;;;22.54;72.26;96948.70;624653;227;64953;-60
2023/07/04 02:45:50;;;;;;;;;;;;;;;22.54;72.29;96947.91;624738;227;66734;-61
2023/07/04 02:48:19;;;;;;;;;;;;;;;22.54;72.28;96953.27;624741;227;63996;-61
2023/07/04 02:50:47;;;;;;;;;;;;;;;22.54;72.28;96955.95;624661;227;62889;-61
2023/07/04 02:53:20;;;;;;;;;;;;;;;22.54;72.29;96963.98;624640;227;64059;-61
2023/07/04 02:55:44;;;;;;;;;;;;;;;22.53;72.29;96965.83;624575;225;66383;-61
2023/07/04 02:58:12;;;;;;;;;;;;;;;22.53;72.25;96957.80;624645;227;65022;-61
2023/07/04 03:00:39;;;;;;;;;;;;;;;22.54;72.29;96961.30;624692;227;66692;-61
2023/07/04 03:03:07;;;;;;;;;;;;;;;22.54;72.26;96966.66;624624;227;67946;-61
2023/07/04 03:05:35;;;;;;;;;;;;;;;22.54;72.27;96975.48;624645;227;65841;-61
2023/07/04 03:08:04;;;;;;;;;;;;;;;22.53;72.31;96968.52;622219;227;64016;-60
2023/07/04 03:10:32;;;;;;;;;;;;;;;22.54;72.27;96961.30;624629;227;66994;-61
2023/07/04 03:13:01;;;;;;;;;;;;;;;22.53;72.29;96962.36;625569;226;64949;-61
2023/07/04 03:15:30;;;;;;;;;;;;;;;22.54;72.30;96961.30;626845;224;44044;-61
2023/07/04 03:17:58;;;;;;;;;;;;;;;22.53;72.27;96965.05;626903;226;65459;-61
2023/07/04 03:20:26;;;;;;;;;;;;;;;22.53;72.28;96959.69;626852;226;65713;-61
2023/07/04 03:22:54;;;;;;;;;;;;;;;22.53;72.30;96959.69;626000;226;64650;-61
2023/07/04 03:25:22;;;;;;;;;;;;;;;22.53;72.30;96960.48;626834;226;67562;-61
2023/07/04 03:27:51;;;;;;;;;;;;;;;22.53;72.29;96954.33;626960;226;42197;-61
2023/07/04 03:30:20;;;;;;;;;;;;;;;22.53;72.27;96951.65;626269;225;45836;-61
2023/07/04 03:32:50;;;;;;;;;;;;;;;22.53;72.27;96955.13;626771;226;64024;-61
2023/07/04 03:35:17;;;;;;;;;;;;;;;22.53;72.31;96954.33;626904;226;65830;-61
2023/07/04 03:37:45;;;;;;;;;;;;;;;22.53;72.31;96948.97;626905;226;64302;-61
2023/07/04 03:40:13;;;;;;;;;;;;;;;22.52;72.31;96944.70;626952;226;66792;-61
2023/07/04 03:42:40;;;;;;;;;;;;;;;22.52;72.28;96948.17;626888;226;64890;-61
2023/07/04 03:45:10;;;;;;;;;;;;;;;22.52;72.28;96947.39;626911;226;65954;-61
2023/07/04 03:47:37;;;;;;;;;;;;;;;22.52;72.25;96948.17;626858;226;66945;-60
2023/07/04 03:50:06;;;;;;;;;;;;;;;22.53;72.30;96943.61;626899;226;62475;-61
2023/07/04 03:52:34;;;;;;;;;;;;;;;22.52;72.28;96945.50;626888;226;67189;-60
2023/07/04 03:55:02;;;;;;;;;;;;;;;22.53;72.27;96947.09;626882;226;65068;-61
2023/07/04 03:57:29;;;;;;;;;;;;;;;22.53;72.27;96951.65;626892;226;62620;-61
2023/07/04 03:59:57;;;;;;;;;;;;;;;22.52;72.28;96939.35;626824;226;64820;-61
2023/07/04 04:02:24;;;;;;;;;;;;;;;22.53;72.23;96948.97;626887;226;64903;-60
2023/07/04 04:04:52;;;;;;;;;;;;;;;22.52;72.24;96948.17;626924;226;62897;-61
2023/07/04 04:07:19;;;;;;;;;;;;;;;22.51;72.26;96946.59;626886;226;64835;-61
2023/07/04 04:09:47;;;;;;;;;;;;;;;22.52;72.23;96942.03;626917;226;65480;-60
2023/07/04 04:12:14;;;;;;;;;;;;;;;22.52;72.24;96950.06;626808;226;65071;-61
2023/07/04 04:14:44;;;;;;;;;;;;;;;22.52;72.26;96952.74;626885;226;64872;-60
2023/07/04 04:17:11;;;;;;;;;;;;;;;22.52;72.25;96950.06;626907;226;67290;-61
2023/07/04 04:19:39;;;;;;;;;;;;;;;22.52;72.25;96958.09;626868;226;64979;-61
2023/07/04 04:22:06;;;;;;;;;;;;;;;22.51;72.24;96951.16;626885;226;67284;-61
2023/07/04 04:24:36;;;;;;;;;;;;;;;22.52;72.25;96952.74;626863;226;67008;-61
2023/07/04 04:27:07;;;;;;;;;;;;;;;22.51;72.27;96959.98;626834;225;66334;-61
2023/07/04 04:29:32;;;;;;;;;;;;;;;22.51;72.23;96951.95;626817;225;64953;-61
2023/07/04 04:31:59;;;;;;;;;;;;;;;22.51;72.23;96954.63;626917;226;67060;-61
2023/07/04 04:34:27;;;;;;;;;;;;;;;22.51;72.23;96949.27;626899;226;62906;-61
2023/07/04 04:36:54;;;;;;;;;;;;;;;22.51;72.23;96956.52;626880;226;64517;-60
2023/07/04 04:39:22;;;;;;;;;;;;;;;22.51;72.23;96945.80;626896;226;66853;-61
2023/07/04 04:41:52;;;;;;;;;;;;;;;22.50;72.24;96955.69;626833;226;66058;-61
2023/07/04 04:44:19;;;;;;;;;;;;;;;22.51;72.24;96959.98;626899;225;67329;-61
2023/07/04 04:46:48;;;;;;;;;;;;;;;22.51;72.22;96957.30;626895;226;65103;-60
2023/07/04 04:49:17;;;;;;;;;;;;;;;22.51;72.23;96962.66;626875;226;62895;-61
2023/07/04 04:51:44;;;;;;;;;;;;;;;22.51;72.22;96967.22;626856;226;67304;-61
2023/07/04 04:54:13;;;;;;;;;;;;;;;22.51;72.21;96959.19;626882;226;67075;-61
2023/07/04 04:56:42;;;;;;;;;;;;;;;22.51;72.22;96959.19;626882;226;65008;-60
2023/07/04 04:59:10;;;;;;;;;;;;;;;22.50;72.23;96961.05;626913;226;67937;-60
2023/07/04 05:01:37;;;;;;;;;;;;;;;22.50;72.22;96961.05;626856;226;64833;-61
2023/07/04 05:04:05;;;;;;;;;;;;;;;22.51;72.21;96959.19;626853;226;65121;-61
2023/07/04 05:06:32;;;;;;;;;;;;;;;22.51;72.21;96961.87;626813;226;67093;-61
2023/07/04 05:09:00;;;;;;;;;;;;;;;22.50;72.19;96955.69;626916;226;66975;-61
2023/07/04 05:11:28;;;;;;;;;;;;;;;22.51;72.21;96959.19;626909;226;64881;-61
2023/07/04 05:13:55;;;;;;;;;;;;;;;22.50;72.21;96960.25;625128;226;67180;-61
2023/07/04 05:16:23;;;;;;;;;;;;;;;22.50;72.22;96960.25;624644;227;67051;-62
2023/07/04 05:18:51;;;;;;;;;;;;;;;22.50;72.21;96960.25;624644;227;65051;-60
2023/07/04 05:21:20;;;;;;;;;;;;;;;22.50;72.23;96961.05;624613;227;65049;-63
2023/07/04 05:23:49;;;;;;;;;;;;;;;22.50;72.22;96961.05;624711;227;64756;-60
2023/07/04 05:26:18;;;;;;;;;;;;;;;22.50;72.21;96952.22;624638;227;65048;-62
2023/07/04 05:28:47;;;;;;;;;;;;;;;22.50;72.22;96957.58;622265;227;67249;-62
2023/07/04 05:31:18;;;;;;;;;;;;;;;22.50;72.18;96954.89;624602;227;67356;-62
2023/07/04 05:33:46;;;;;;;;;;;;;;;22.50;72.21;96957.58;624601;227;63020;-60
2023/07/04 05:36:15;;;;;;;;;;;;;;;22.50;72.23;96954.89;624680;227;67242;-60
2023/07/04 05:38:43;;;;;;;;;;;;;;;22.50;72.17;96952.22;624606;227;67043;-60
2023/07/04 05:41:12;;;;;;;;;;;;;;;22.49;72.19;96951.42;624638;227;65004;-60
2023/07/04 05:43:40;;;;;;;;;;;;;;;22.49;72.19;96956.78;624647;227;67169;-60
2023/07/04 05:46:09;;;;;;;;;;;;;;;22.50;72.21;96952.22;624566;227;66750;-62
2023/07/04 05:48:37;;;;;;;;;;;;;;;22.49;72.16;96954.10;624680;227;62952;-61
2023/07/04 05:51:05;;;;;;;;;;;;;;;22.50;72.19;96954.89;623886;227;64606;-61
2023/07/04 05:53:34;;;;;;;;;;;;;;;22.50;72.18;96957.58;624604;227;67162;-59
2023/07/04 05:56:06;;;;;;;;;;;;;;;22.49;72.23;96955.98;624592;227;65007;-59
2023/07/04 05:58:35;;;;;;;;;;;;;;;22.49;72.21;96947.95;620515;225;67419;-62
2023/07/04 06:01:13;;;;;;;;;;;;;;;22.50;72.22;96954.89;624599;227;67115;-60
2023/07/04 06:03:41;;;;;;;;;;;;;;;22.49;72.20;96953.31;624637;227;64948;-61
2023/07/04 06:06:10;;;;;;;;;;;;;;;22.50;72.24;96952.22;624601;227;67206;-60
2023/07/04 06:08:37;;;;;;;;;;;;;;;22.49;72.40;96956.78;624473;225;67049;-61
2023/07/04 06:11:05;;;;;;;;;;;;;;;22.48;72.47;96960.55;624527;227;65004;-61
2023/07/04 06:13:34;;;;;;;;;;;;;;;22.48;72.71;96962.41;625925;226;67216;-61
2023/07/04 06:16:03;;;;;;;;;;;;;;;22.48;72.74;96962.41;621534;226;67168;-60
2023/07/04 06:18:31;;;;;;;;;;;;;;;22.50;72.63;96960.25;619676;229;65066;-62
2023/07/04 06:21:14;;;;;;;;;;;;;;;22.50;72.52;96965.61;619688;229;67304;-60
2023/07/04 06:23:41;;;;;;;;;;;;;;;22.51;72.34;96959.19;619681;229;67074;-61
2023/07/04 06:26:10;;;;;;;;;;;;;;;22.49;72.49;96951.42;619627;229;62802;-62
2023/07/04 06:28:38;;;;;;;;;;;;;;;22.50;72.42;96960.25;619714;229;67228;-60
2023/07/04 06:31:07;;;;;;;;;;;;;;;22.51;72.40;96956.52;619769;229;65019;-59
2023/07/04 06:33:34;;;;;;;;;;;;;;;22.51;72.41;96953.83;619664;229;63003;-59
2023/07/04 06:36:02;;;;;;;;;;;;;;;22.51;72.39;96954.63;619716;229;64939;-59
2023/07/04 06:38:29;;;;;;;;;;;;;;;22.52;72.42;96953.53;619720;229;63472;-59
2023/07/04 06:40:58;;;;;;;;;;;;;;;22.52;72.48;96953.53;619675;229;62929;-61
2023/07/04 06:43:26;;;;;;;;;;;;;;;22.53;72.48;96954.33;619768;229;64799;-59
2023/07/04 06:45:53;;;;;;;;;;;;;;;22.53;72.53;96949.77;619729;229;66937;-59
2023/07/04 06:48:22;;;;;;;;;;;;;;;22.53;72.52;96954.33;619627;229;65079;-59
2023/07/04 06:51:03;;;;;;;;;;;;;;;22.53;72.52;96954.33;619654;229;66617;-59
2023/07/04 06:53:31;;;;;;;;;;;;;;;22.54;72.56;96945.23;619691;229;66972;-59
2023/07/04 06:56:09;;;;;;;;;;;;;;;22.54;72.65;96947.91;619713;229;62976;-61
2023/07/04 06:58:45;;;;;;;;;;;;;;;22.54;72.69;96939.88;619785;229;64748;-59
2023/07/04 07:01:10;;;;;;;;;;;;;;;22.54;72.71;96934.52;619333;229;67071;-59
2023/07/04 07:03:37;;;;;;;;;;;;;;;22.54;72.80;96937.98;619708;229;64892;-58
2023/07/04 07:06:06;;;;;;;;;;;;;;;22.54;72.83;96931.84;619698;229;66969;-62
2023/07/04 07:08:34;;;;;;;;;;;;;;;22.54;72.82;96934.52;619666;229;67014;-60
2023/07/04 07:11:03;;;;;;;;;;;;;;;22.54;73.03;96935.31;619668;229;65072;-60
2023/07/04 07:13:31;;;;;;;;;;;;;;;22.54;72.76;96929.95;616757;229;65264;-60
2023/07/04 07:16:06;;;;;;;;;;;;;;;22.55;72.73;96925.39;614652;231;64917;-59
2023/07/04 07:18:34;;;;;;;;;;;;;;;22.55;72.86;96930.75;614675;231;63002;-59
2023/07/04 07:21:02;;;;;;;;;;;;;;;22.55;72.85;96928.07;614744;231;67218;-60
2023/07/04 07:23:31;;;;;;;;;;;;;;;22.54;72.70;96929.16;614689;231;67050;-58
2023/07/04 07:25:59;;;;;;;;;;;;;;;22.54;72.70;96935.31;614768;231;65277;-58
2023/07/04 07:28:27;;;;;;;;;;;;;;;22.55;72.71;96933.42;614712;231;67241;-60
2023/07/04 07:31:05;;;;;;;;;;;;;;;22.55;72.82;96936.11;614658;231;67052;-60
2023/07/04 07:33:34;;;;;;;;;;;;;;;22.55;72.94;96931.55;614749;231;63798;-61
2023/07/04 07:36:03;;;;;;;;;;;;;;;22.55;73.14;96936.90;614685;231;64763;-58
2023/07/04 07:38:30;;;;;;;;;;;;;;;22.55;73.10;96942.25;614453;231;66996;-58
2023/07/04 07:40:58;;;;;;;;;;;;;;;22.56;73.11;96941.19;614740;231;65207;-58
2023/07/04 07:43:25;;;;;;;;;;;;;;;22.56;73.02;96940.37;614615;228;64888;-59
2023/07/04 07:45:53;;;;;;;;;;;;;;;22.56;73.02;96932.33;614742;231;67008;-59
2023/07/04 07:48:20;;;;;;;;;;;;;;;22.56;73.04;96937.69;614703;231;65172;-59
2023/07/04 07:50:48;;;;;;;;;;;;;;;22.56;73.09;96935.84;614635;231;67232;-60
2023/07/04 07:53:15;;;;;;;;;;;;;;;22.56;72.98;96937.69;614737;231;66860;-60
2023/07/04 07:55:43;;;;;;;;;;;;;;;22.57;73.05;96933.95;614731;231;65034;-60
2023/07/04 07:58:10;;;;;;;;;;;;;;;22.57;73.05;96934.74;614648;231;67964;-60
2023/07/04 08:00:38;;;;;;;;;;;;;;;22.57;73.09;96931.27;614689;231;67365;-61
2023/07/04 08:03:05;;;;;;;;;;;;;;;22.57;73.12;96932.06;614707;231;64948;-62
2023/07/04 08:05:41;;;;;;;;;;;;;;;22.57;73.10;96931.27;614774;231;47139;-62
2023/07/04 08:08:09;;;;;;;;;;;;;;;22.59;73.04;96937.95;614704;231;66935;-62
2023/07/04 08:10:37;;;;;;;;;;;;;;;22.62;73.37;96931.22;614716;231;63674;-62
2023/07/04 08:13:05;;;;;;;;;;;;;;;22.63;72.32;96940.05;614471;229;65139;-62
2023/07/04 08:15:33;;;;;;;;;;;;;;;22.65;72.25;96936.02;615158;228;65896;-62
2023/07/04 08:18:04;;;;;;;;;;;;;;;22.68;72.50;96938.13;621208;228;67557;-62
2023/07/04 08:20:32;;;;;;;;;;;;;;;22.71;72.56;96932.19;621676;228;67605;-62
2023/07/04 08:22:59;;;;;;;;;;;;;;;22.73;72.59;96927.36;621678;228;67058;-61
2023/07/04 08:25:27;;;;;;;;;;;;;;;22.75;72.62;96930.56;621681;228;65150;-63
2023/07/04 08:27:55;;;;;;;;;;;;;;;22.78;72.51;96931.84;621611;228;67235;-62
2023/07/04 08:30:22;;;;;;;;;;;;;;;22.79;72.91;96936.14;621723;228;64939;-60
2023/07/04 08:32:51;;;;;;;;;;;;;;;22.80;73.01;96935.05;621753;228;62986;-60
2023/07/04 08:35:19;;;;;;;;;;;;;;;22.81;72.14;96931.30;621649;228;64588;-61
2023/07/04 08:37:46;;;;;;;;;;;;;;;22.83;72.81;96929.94;621765;228;66838;-61
2023/07/04 08:40:14;;;;;;;;;;;;;;;22.86;73.04;96935.78;621669;228;65017;-62
2023/07/04 08:42:42;;;;;;;;;;;;;;;22.87;72.64;96934.72;621705;228;66966;-60
2023/07/04 08:45:11;;;;;;;;;;;;;;;22.88;73.56;96938.98;621808;228;67065;-61
2023/07/04 08:47:40;;;;;;;;;;;;;;;22.89;73.69;96937.89;621663;228;65035;-61
2023/07/04 08:50:14;;;;;;;;;;;;;;;22.88;73.91;96938.98;621634;228;67214;-62
2023/07/04 08:52:48;;;;;;;;;;;;;;;22.89;73.29;96937.89;621724;228;67080;-62
2023/07/04 08:55:16;;;;;;;;;;;;;;;22.89;73.76;96935.21;621644;228;65051;-63
2023/07/04 08:57:51;;;;;;;;;;;;;;;22.90;73.79;96944.87;621708;228;67331;-63
2023/07/04 09:00:29;;;;;;;;;;;;;;;22.90;73.59;96936.83;621742;228;67057;-61
2023/07/04 09:03:01;;;;;;;;;;;;;;;22.90;73.59;96924.22;621656;228;65028;-62
2023/07/04 09:05:37;;;;;;;;;;;;;;;22.92;73.84;96926.62;621196;228;67278;-62
2023/07/04 09:08:12;;;;;;;;;;;;;;;22.92;73.77;96923.95;621232;228;66858;-60
2023/07/04 09:10:41;;;;;;;;;;;;;;;22.90;73.78;96924.22;621437;228;63033;-61
2023/07/04 09:13:13;;;;;;;;;;;;;;;22.90;73.29;96929.58;620450;227;64858;-62
2023/07/04 09:15:45;;;;;;;;;;;;;;;22.90;73.12;96918.07;621431;228;67438;-64
2023/07/04 09:18:17;;;;;;;;;;;;;;;22.88;71.27;96912.19;621524;228;62890;-63
2023/07/04 09:20:49;;;;;;;;;;;;;;;22.91;73.11;96922.34;614517;228;68285;-63
2023/07/04 09:23:22;;;;;;;;;;;;;;;22.91;73.50;96927.69;617013;228;67089;-61
2023/07/04 09:25:51;;;;;;;;;;;;;;;22.94;73.62;96924.44;614174;230;62848;-62
2023/07/04 09:28:18;;;;;;;;;;;;;;;22.94;73.50;96919.88;615023;230;67348;-64
2023/07/04 09:30:46;;;;;;;;;;;;;;;22.94;73.42;96921.76;615048;230;67072;-64
2023/07/04 09:33:14;;;;;;;;;;;;;;;22.94;73.33;96921.76;614977;230;64996;-64
2023/07/04 09:35:42;;;;;;;;;;;;;;;22.95;73.27;96918.02;615045;230;64639;-61
2023/07/04 09:38:10;;;;;;;;;;;;;;;22.95;73.31;96913.45;614911;230;67077;-62
2023/07/04 09:40:47;;;;;;;;;;;;;;;22.95;73.67;96913.45;614844;230;65036;-62
2023/07/04 09:43:31;;;;;;;;;;;;;;;22.95;72.52;96915.34;614052;230;65197;-62
2023/07/04 09:46:15;;;;;;;;;;;;;;;22.95;73.29;96918.02;613973;230;64888;-61
2023/07/04 09:48:43;;;;;;;;;;;;;;;22.95;73.43;96918.81;615138;230;62965;-61
2023/07/04 09:51:18;;;;;;;;;;;;;;;22.97;73.37;96915.86;615042;230;67201;-61
2023/07/04 09:53:45;;;;;;;;;;;;;;;22.97;73.60;96915.86;615057;230;64904;-62
2023/07/04 09:56:14;;;;;;;;;;;;;;;22.97;73.45;96910.50;614953;230;65056;-63
2023/07/04 09:58:42;;;;;;;;;;;;;;;22.97;73.13;96910.50;614601;230;67198;-63
2023/07/04 10:01:13;;;;;;;;;;;;;;;22.98;73.27;96912.11;615085;230;67257;-63
2023/07/04 10:03:42;;;;;;;;;;;;;;;22.98;73.40;96914.80;615055;228;62466;-63
2023/07/04 10:06:10;;;;;;;;;;;;;;;22.98;73.26;96909.43;614962;229;64981;-63
2023/07/04 10:08:54;;;;;;;;;;;;;;;22.99;73.17;96911.81;615082;228;67045;-63
2023/07/04 10:11:29;;;;;;;;;;;;;;;22.98;73.05;96906.75;615073;230;62889;-63
2023/07/04 10:14:01;;;;;;;;;;;;;;;22.99;73.27;96908.34;615972;228;67146;-64
2023/07/04 10:16:28;;;;;;;;;;;;;;;22.98;73.05;96907.55;620297;226;66996;-63
2023/07/04 10:19:00;;;;;;;;;;;;;;;22.99;72.93;96903.77;625315;226;62905;-59
2023/07/04 10:21:28;;;;;;;;;;;;;;;22.99;72.01;96902.97;626984;225;65720;-59
2023/07/04 10:23:55;;;;;;;;;;;;;;;23.04;69.52;96897.55;627238;226;64679;-62
2023/07/04 10:26:23;;;;;;;;;;;;;;;23.11;69.08;96898.02;627212;226;62900;-62
2023/07/04 10:28:52;;;;;;;;;;;;;;;23.12;70.98;96899.60;627261;226;64904;-62
2023/07/04 10:31:21;;;;;;;;;;;;;;;23.13;71.32;96895.83;627164;226;67664;-62
2023/07/04 10:33:50;;;;;;;;;;;;;;;23.12;71.76;96888.09;626441;226;62989;-62
2023/07/04 10:36:19;;;;;;;;;;;;;;;23.14;72.65;96883.24;618989;226;64275;-62
2023/07/04 10:38:48;;;;;;;;;;;;;;;23.10;68.50;96876.84;618766;226;66413;-62
2023/07/04 10:41:17;;;;;;;;;;;;;;;23.09;68.55;96878.73;613496;226;66673;-62
2023/07/04 10:43:46;;;;;;;;;;;;;;;23.09;67.84;96876.05;625224;226;65070;-64
2023/07/04 10:46:15;;;;;;;;;;;;;;;23.11;67.51;96883.80;626762;226;73268;-62
2023/07/04 10:48:45;;;;;;;;;;;;;;;23.09;67.32;96881.42;626834;226;65079;-64
2023/07/04 10:51:14;;;;;;;;;;;;;;;23.10;67.06;96880.32;626778;226;64352;-62
2023/07/04 10:53:42;;;;;;;;;;;;;;;23.11;66.88;96881.11;626677;226;66644;-62
2023/07/04 10:56:13;;;;;;;;;;;;;;;23.10;66.85;96874.95;623353;226;64958;-62
2023/07/04 10:58:41;;;;;;;;;;;;;;;23.12;66.82;96882.73;622861;226;67130;-62
2023/07/04 11:01:23;;;;;;;;;;;;;;;23.11;66.80;96881.94;620120;229;65604;-62
2023/07/04 11:03:52;;;;;;;;;;;;;;;23.11;67.26;96884.61;620061;229;62971;-62
2023/07/04 11:06:22;;;;;;;;;;;;;;;23.12;67.10;96885.41;620089;229;66897;-62
2023/07/04 11:08:50;;;;;;;;;;;;;;;23.12;67.49;96885.41;620129;227;64634;-64
2023/07/04 11:11:19;;;;;;;;;;;;;;;23.11;66.90;96889.98;620013;229;65196;-62
2023/07/04 11:13:51;;;;;;;;;;;;;;;23.11;67.73;96881.94;619446;228;64974;-62
2023/07/04 11:16:39;;;;;;;;;;;;;;;23.11;67.65;96881.94;619632;229;67131;-62
2023/07/04 11:19:19;;;;;;;;;;;;;;;23.12;67.91;96880.84;619640;229;62989;-62
2023/07/04 11:21:54;;;;;;;;;;;;;;;23.14;66.90;96892.08;619638;229;67197;-63
2023/07/04 11:24:22;;;;;;;;;;;;;;;23.14;66.95;96896.65;619628;229;65701;-62
2023/07/04 11:26:52;;;;;;;;;;;;;;;23.15;67.70;96901.70;619658;229;63039;-61
2023/07/04 11:29:22;;;;;;;;;;;;;;;23.14;67.95;96902.01;619696;229;65311;-61
2023/07/04 11:32:04;;;;;;;;;;;;;;;23.11;68.27;96914.10;619670;229;66931;-61
2023/07/04 11:34:34;;;;;;;;;;;;;;;23.19;68.59;96916.14;619707;229;65015;-60
2023/07/04 11:37:01;;;;;;;;;;;;;;;23.20;69.54;96923.09;619314;228;67077;-62
2023/07/04 11:39:30;;;;;;;;;;;;;;;23.18;69.92;96922.58;619619;229;64647;-61
2023/07/04 11:41:58;;;;;;;;;;;;;;;23.19;69.69;96934.91;619686;229;63053;-64
2023/07/04 11:44:30;;;;;;;;;;;;;;;23.18;69.56;96930.62;619623;229;64883;-63
2023/07/04 11:47:00;;;;;;;;;;;;;;;23.20;69.59;96939.17;619652;229;67458;-62
2023/07/04 11:49:30;;;;;;;;;;;;;;;23.21;70.26;96937.29;619416;228;65167;-61
2023/07/04 11:52:16;;;;;;;;;;;;;;;23.20;69.34;96930.34;619260;229;64829;-62
2023/07/04 11:54:45;;;;;;;;;;;;;;;23.21;71.19;96927.36;619670;229;65013;-64
2023/07/04 11:57:12;;;;;;;;;;;;;;;23.19;70.21;96924.19;619687;229;63058;-62
2023/07/04 11:59:44;;;;;;;;;;;;;;;23.20;71.44;96931.13;619660;229;64880;-62
2023/07/04 12:02:28;;;;;;;;;;;;;;;23.20;71.62;96919.62;619687;229;67083;-62
2023/07/04 12:04:57;;;;;;;;;;;;;;;23.19;71.25;96915.32;619558;228;63031;-62
2023/07/04 12:07:26;;;;;;;;;;;;;;;23.18;71.46;96909.17;619486;229;66903;-63
2023/07/04 12:09:58;;;;;;;;;;;;;;;23.15;70.23;96906.27;619727;229;67073;-61
2023/07/04 12:12:30;;;;;;;;;;;;;;;23.14;71.11;96900.13;619336;228;64998;-63
2023/07/04 12:15:05;;;;;;;;;;;;;;;23.15;71.38;96898.23;619540;229;65143;-63
2023/07/04 12:17:31;;;;;;;;;;;;;;;23.16;71.66;96897.95;615477;226;64909;-60
2023/07/04 12:20:03;;;;;;;;;;;;;;;23.15;71.98;96901.70;619343;229;62762;-61
2023/07/04 12:22:31;;;;;;;;;;;;;;;23.18;71.92;96898.44;619635;229;66934;-60
2023/07/04 12:25:03;;;;;;;;;;;;;;;23.18;72.98;96901.13;619539;229;65691;-60
2023/07/04 12:27:31;;;;;;;;;;;;;;;23.20;73.76;96898.17;619384;228;64790;-59
2023/07/04 12:29:59;;;;;;;;;;;;;;;23.21;74.29;96894.39;619675;229;67045;-60
2023/07/04 12:32:28;;;;;;;;;;;;;;;23.25;74.31;96895.42;619654;229;67024;-59
2023/07/04 12:34:55;;;;;;;;;;;;;;;23.26;74.62;96875.56;618752;229;66494;-59
2023/07/04 12:37:27;;;;;;;;;;;;;;;23.24;75.12;96873.19;620563;226;67202;-59
2023/07/04 12:39:54;;;;;;;;;;;;;;;23.25;74.83;96863.25;623423;226;66889;-59
2023/07/04 12:42:29;;;;;;;;;;;;;;;23.22;74.49;96861.16;622754;226;65065;-59
2023/07/04 12:44:57;;;;;;;;;;;;;;;23.21;74.10;96854.97;620571;225;65003;-60
2023/07/04 12:47:26;;;;;;;;;;;;;;;23.22;73.76;96847.75;620601;226;67028;-60
2023/07/04 12:49:54;;;;;;;;;;;;;;;23.22;73.26;96856.58;619508;228;65056;-63
2023/07/04 12:52:23;;;;;;;;;;;;;;;23.21;73.55;96852.29;619666;229;67249;-63
2023/07/04 12:54:51;;;;;;;;;;;;;;;23.26;74.28;96854.91;615664;229;63703;-63
2023/07/04 12:57:20;;;;;;;;;;;;;;;23.28;73.44;96851.16;609876;229;62558;-63
2023/07/04 12:59:48;;;;;;;;;;;;;;;23.24;73.12;96856.28;619671;229;64905;-63